Carangola, Brazil
Current Conditions -  °F | °C
As of 3:00 PM on Thursday 27 Nov 2014 (Local Time) from SBCP Reporting Station
Broken Clouds Broken Clouds  
Wind Chill: 90°   Ceiling: 10000
Heat Index: 95°   Visibility: 6mi
Dew Point: 70°   Wind: 16mph
Humidity: 52%   Direction: 80°E
Pressure: 29.77"   Gusts: NA
Location:  20.74°S, 42.04°W
Report Text: SBCP 271700Z 08014KT 9999 SCT040 BKN100 32/21 Q1008
Loading
Personal Weather Stations






























Interactive Weather Map New forecast layout! Learn more

10-Day Weather Forecast

Advertisements
Track Severe Weather on mobile